Time;durP1;ratioP1;P1;durP2;ratioP2;P2;SDS_P1;SDS_P2;PMS_P1;PMS_P2;Temp;Humidity;BMP_temperature;BMP_pressure;BME280_temperature;BME280_humidity;BME280_pressure;Samples;Min_cycle;Max_cycle;Signal;HPM_P1;HPM_P2
2022/06/30 00:01:24;;;;;;;13.40;11.18;;;21.10;99.90;;;;;;5093649;28;20032;-56
2022/06/30 00:03:50;;;;;;;15.90;10.85;;;21.10;99.90;;;;;;5094981;28;20481;-56
2022/06/30 00:06:16;;;;;;;19.88;12.05;;;21.10;99.90;;;;;;5095023;28;20032;-56
2022/06/30 00:08:42;;;;;;;16.75;11.93;;;21.00;99.90;;;;;;5095119;28;20532;-56
2022/06/30 00:11:08;;;;;;;13.25;10.13;;;21.00;99.90;;;;;;5093500;28;20085;-56
2022/06/30 00:13:35;;;;;;;17.33;11.52;;;21.00;99.90;;;;;;5094736;28;20048;-56
2022/06/30 00:16:02;;;;;;;14.95;11.93;;;21.00;99.90;;;;;;5093680;28;20040;-56
2022/06/30 00:18:28;;;;;;;15.48;11.27;;;21.00;99.90;;;;;;5093736;28;20498;-56
2022/06/30 00:20:54;;;;;;;16.20;11.70;;;21.00;99.90;;;;;;5094768;28;20468;-56
2022/06/30 00:23:20;;;;;;;17.90;10.57;;;20.90;99.90;;;;;;5094828;28;20043;-56
2022/06/30 00:25:47;;;;;;;15.68;11.73;;;21.00;99.90;;;;;;5094542;28;20473;-56
2022/06/30 00:28:13;;;;;;;17.65;11.63;;;21.10;99.90;;;;;;5094897;28;20035;-56
2022/06/30 00:30:39;;;;;;;17.40;12.18;;;21.00;99.90;;;;;;5094783;28;20021;-56
2022/06/30 00:33:05;;;;;;;16.27;11.57;;;20.90;99.90;;;;;;5094615;28;20024;-56
2022/06/30 00:35:31;;;;;;;17.25;11.95;;;21.00;99.90;;;;;;5094685;28;20024;-56
2022/06/30 00:37:56;;;;;;;16.92;10.85;;;20.90;99.90;;;;;;5094938;28;20032;-56
2022/06/30 00:40:22;;;;;;;15.23;11.90;;;20.80;99.90;;;;;;5094509;28;20020;-56
2022/06/30 00:42:48;;;;;;;13.55;11.40;;;20.80;99.90;;;;;;5094752;28;20046;-56
2022/06/30 00:45:14;;;;;;;12.93;10.80;;;20.80;99.90;;;;;;5093060;28;20043;-56
2022/06/30 00:47:41;;;;;;;26.05;12.75;;;20.70;99.90;;;;;;5094445;28;20035;-57
2022/06/30 00:50:08;;;;;;;13.43;12.07;;;20.70;99.90;;;;;;5094447;28;20024;-56
2022/06/30 00:52:36;;;;;;;17.15;11.70;;;20.70;99.90;;;;;;5094607;28;20073;-56
2022/06/30 00:55:04;;;;;;;17.20;11.48;;;20.70;99.90;;;;;;5094337;28;20036;-56
2022/06/30 00:57:31;;;;;;;18.92;11.07;;;20.70;99.90;;;;;;5094601;28;20020;-56
2022/06/30 00:59:58;;;;;;;21.17;11.50;;;20.70;99.90;;;;;;5094550;28;20474;-56
2022/06/30 01:02:25;;;;;;;14.00;11.73;;;20.70;99.90;;;;;;5093019;28;20477;-56
2022/06/30 01:04:53;;;;;;;12.95;10.70;;;20.70;99.90;;;;;;5094307;28;20115;-56
2022/06/30 01:07:21;;;;;;;14.57;11.52;;;20.80;99.90;;;;;;5094552;28;20044;-56
2022/06/30 01:12:44;;;;;;;13.93;12.05;;;20.80;99.90;;;;;;5094258;28;20040;-56
2022/06/30 01:15:13;;;;;;;16.15;11.50;;;20.80;99.90;;;;;;5092866;28;20453;-56
2022/06/30 01:17:39;;;;;;;21.55;12.35;;;20.80;99.90;;;;;;5093254;28;20048;-56
2022/06/30 01:20:06;;;;;;;16.70;12.27;;;20.70;99.90;;;;;;5094254;28;20032;-56
2022/06/30 01:22:32;;;;;;;14.63;12.85;;;20.70;99.90;;;;;;5093779;28;20456;-56
2022/06/30 01:24:58;;;;;;;18.33;12.25;;;20.60;99.90;;;;;;5093908;28;20035;-56
2022/06/30 01:27:24;;;;;;;14.80;11.95;;;20.70;99.90;;;;;;5096785;28;20032;-56
2022/06/30 01:29:50;;;;;;;15.77;12.15;;;20.60;99.90;;;;;;5096751;28;20473;-56
2022/06/30 01:32:17;;;;;;;14.02;11.70;;;20.60;99.90;;;;;;5096794;28;20110;-56
2022/06/30 01:34:43;;;;;;;14.77;11.70;;;20.60;99.90;;;;;;5097939;28;20023;-56
2022/06/30 01:37:09;;;;;;;16.20;11.27;;;20.70;99.90;;;;;;5097849;28;20051;-56
2022/06/30 01:39:35;;;;;;;15.25;12.07;;;20.60;99.90;;;;;;5098061;28;20563;-56
2022/06/30 01:42:01;;;;;;;21.17;12.52;;;20.50;99.90;;;;;;5098035;28;20596;-56
2022/06/30 01:44:27;;;;;;;15.75;11.25;;;20.40;99.90;;;;;;5097586;28;20051;-56
2022/06/30 01:46:53;;;;;;;12.55;11.10;;;20.40;99.90;;;;;;5096523;28;20105;-56
2022/06/30 01:49:19;;;;;;;15.13;11.40;;;20.40;99.90;;;;;;5097736;28;20028;-56
2022/06/30 01:51:45;;;;;;;20.42;11.77;;;20.30;99.90;;;;;;5097646;28;20020;-56
2022/06/30 01:54:11;;;;;;;17.60;11.60;;;20.30;99.90;;;;;;5097580;28;20101;-56
2022/06/30 01:56:38;;;;;;;18.25;10.98;;;20.30;99.90;;;;;;5113344;28;20027;-56
2022/06/30 01:59:05;;;;;;;15.48;11.20;;;20.30;99.90;;;;;;5096357;28;20400;-56
2022/06/30 02:01:32;;;;;;;17.58;11.63;;;20.30;99.90;;;;;;5096398;28;20120;-56
2022/06/30 02:04:46;;;;;;;12.75;11.10;;;20.20;99.90;;;;;;5097291;28;20028;-56
2022/06/30 02:06:45;;;;;;;16.90;12.70;;;20.20;99.90;;;;;;5097383;28;20107;-56
2022/06/30 02:09:11;;;;;;;15.68;13.43;;;20.20;99.90;;;;;;5096308;28;20064;-56
2022/06/30 02:11:37;;;;;;;15.25;11.63;;;20.20;99.90;;;;;;5095936;28;20024;-56
2022/06/30 02:14:03;;;;;;;14.90;12.15;;;20.00;99.90;;;;;;5079145;28;20078;-56
2022/06/30 02:16:30;;;;;;;15.27;11.60;;;20.00;99.90;;;;;;5097229;28;20040;-56
2022/06/30 02:18:56;;;;;;;16.48;11.38;;;20.00;99.90;;;;;;5097247;28;20032;-56
2022/06/30 02:21:22;;;;;;;15.88;11.70;;;20.00;99.90;;;;;;5097086;28;20023;-56
2022/06/30 02:23:48;;;;;;;15.95;11.77;;;20.00;99.90;;;;;;5097275;28;20032;-56
2022/06/30 02:26:14;;;;;;;15.40;11.98;;;20.00;99.90;;;;;;5096846;28;20059;-56
2022/06/30 02:28:40;;;;;;;13.70;11.52;;;20.00;99.90;;;;;;5097115;28;20051;-56
2022/06/30 02:31:06;;;;;;;14.07;11.02;;;20.00;99.90;;;;;;5097037;28;20035;-56
2022/06/30 02:33:32;;;;;;;16.90;10.68;;;20.10;99.90;;;;;;5096787;28;20109;-56
2022/06/30 02:35:58;;;;;;;20.00;12.52;;;20.10;99.90;;;;;;5096875;28;20028;-56
2022/06/30 02:38:24;;;;;;;18.05;11.68;;;20.00;99.90;;;;;;5095498;28;20040;-56
2022/06/30 02:40:49;;;;;;;19.70;12.13;;;20.00;99.90;;;;;;5096732;28;20030;-56
2022/06/30 02:43:15;;;;;;;16.13;11.82;;;20.00;99.90;;;;;;5096650;28;20028;-56
2022/06/30 02:45:41;;;;;;;15.70;11.52;;;19.90;99.90;;;;;;5096517;28;20028;-56
2022/06/30 02:48:07;;;;;;;17.58;12.35;;;19.90;99.90;;;;;;5112212;28;20039;-56
2022/06/30 02:50:33;;;;;;;16.10;10.90;;;19.80;99.90;;;;;;5096731;28;20020;-56
2022/06/30 02:52:59;;;;;;;14.80;10.82;;;19.80;99.90;;;;;;5095235;28;20067;-56
2022/06/30 02:55:25;;;;;;;12.18;10.90;;;19.90;99.90;;;;;;5096435;28;20028;-56
2022/06/30 02:57:51;;;;;;;14.45;11.32;;;20.00;99.90;;;;;;5096422;28;20047;-56
2022/06/30 03:00:17;;;;;;;19.55;11.82;;;19.90;99.90;;;;;;5096256;28;20032;-56
2022/06/30 03:02:43;;;;;;;14.55;11.25;;;19.80;99.90;;;;;;5096265;28;20036;-56
2022/06/30 03:05:10;;;;;;;18.63;11.65;;;19.70;99.90;;;;;;5096250;28;20432;-56
2022/06/30 03:07:36;;;;;;;15.57;10.60;;;19.70;99.90;;;;;;5094908;28;20024;-56
2022/06/30 03:10:02;;;;;;;12.57;10.80;;;19.70;99.90;;;;;;5094737;28;20028;-56
2022/06/30 03:12:28;;;;;;;24.48;12.15;;;19.70;99.90;;;;;;5096038;28;20514;-56
2022/06/30 03:14:54;;;;;;;13.38;11.38;;;19.70;99.90;;;;;;5095987;28;20084;-56
2022/06/30 03:17:20;;;;;;;16.77;11.02;;;19.70;99.90;;;;;;5096022;28;20024;-56
2022/06/30 03:19:46;;;;;;;23.27;11.20;;;19.60;99.90;;;;;;5077781;28;20020;-56
2022/06/30 03:22:12;;;;;;;20.17;11.43;;;19.60;99.90;;;;;;5094551;28;20028;-56
2022/06/30 03:24:38;;;;;;;15.63;11.50;;;19.60;99.90;;;;;;5095821;28;20024;-58
2022/06/30 03:27:04;;;;;;;16.05;11.93;;;19.70;99.90;;;;;;5095808;28;20028;-56
2022/06/30 03:29:30;;;;;;;13.98;12.05;;;19.70;99.90;;;;;;5095864;28;20031;-56
2022/06/30 03:31:58;;;;;;;16.50;11.65;;;19.60;99.90;;;;;;5095778;28;20028;-56
2022/06/30 03:34:24;;;;;;;15.75;12.40;;;19.60;99.90;;;;;;5094272;28;20394;-56
2022/06/30 03:36:51;;;;;;;18.63;13.07;;;19.60;99.90;;;;;;5095764;28;20030;-56
2022/06/30 03:39:16;;;;;;;16.40;13.15;;;19.60;99.90;;;;;;5095603;28;20017;-56
2022/06/30 03:41:42;;;;;;;15.25;11.93;;;19.70;99.90;;;;;;5095621;28;20431;-56
2022/06/30 03:44:08;;;;;;;13.75;11.93;;;19.60;99.90;;;;;;5094147;28;20078;-56
2022/06/30 03:46:34;;;;;;;16.02;12.70;;;19.60;99.90;;;;;;5095484;28;20052;-56
2022/06/30 03:49:00;;;;;;;18.55;12.80;;;19.60;99.90;;;;;;5095239;28;20032;-56
2022/06/30 03:51:26;;;;;;;17.85;12.50;;;19.60;99.90;;;;;;5095370;28;20032;-56
2022/06/30 03:53:54;;;;;;;16.40;12.98;;;19.70;99.90;;;;;;5095334;28;20028;-56
2022/06/30 03:56:20;;;;;;;18.23;13.27;;;19.70;99.90;;;;;;5095193;28;20031;-56
2022/06/30 03:58:46;;;;;;;19.52;13.73;;;19.80;99.90;;;;;;5093910;28;20028;-56
2022/06/30 04:01:12;;;;;;;19.40;14.50;;;19.80;99.90;;;;;;5093977;28;20032;-56
2022/06/30 04:03:38;;;;;;;20.73;14.60;;;19.80;99.90;;;;;;5095072;28;20119;-56
2022/06/30 04:06:04;;;;;;;22.15;15.38;;;19.90;99.90;;;;;;5095279;28;20038;-56
2022/06/30 04:08:30;;;;;;;18.80;15.02;;;19.90;99.90;;;;;;5095126;28;20030;-56
2022/06/30 04:10:56;;;;;;;19.35;14.23;;;20.00;99.90;;;;;;5095087;28;20178;-56
2022/06/30 04:13:22;;;;;;;18.10;14.13;;;20.00;99.90;;;;;;5093434;28;20200;-56
2022/06/30 04:15:48;;;;;;;17.95;13.68;;;20.10;99.90;;;;;;5095005;28;20035;-56
2022/06/30 04:18:14;;;;;;;18.65;14.48;;;20.10;99.90;;;;;;5093833;28;20314;-56
2022/06/30 04:20:40;;;;;;;18.88;13.77;;;20.20;99.90;;;;;;5095047;28;20032;-56
2022/06/30 04:23:06;;;;;;;19.85;12.77;;;20.20;99.90;;;;;;5094675;28;20446;-56
2022/06/30 04:25:32;;;;;;;15.60;12.10;;;20.30;99.90;;;;;;5094747;28;20252;-56
2022/06/30 04:28:00;;;;;;;15.52;12.55;;;20.30;99.90;;;;;;5093434;28;20028;-56
2022/06/30 04:33:11;;;;;;;22.08;15.60;;;20.50;99.90;;;;;;5094508;28;20036;-56
2022/06/30 04:35:36;;;;;;;42.15;17.98;;;20.60;99.90;;;;;;5093264;28;20040;-57
2022/06/30 04:38:03;;;;;;;26.35;14.60;;;20.80;99.90;;;;;;5093104;28;20478;-57
2022/06/30 04:43:14;;;;;;;31.73;17.42;;;21.00;99.90;;;;;;5094535;28;20027;-57
2022/06/30 04:45:41;;;;;;;26.60;15.70;;;21.20;99.90;;;;;;5094318;28;20035;-57
2022/06/30 04:48:08;;;;;;;25.83;17.50;;;21.20;99.90;;;;;;5094628;28;20036;-57
2022/06/30 04:50:34;;;;;;;26.27;16.35;;;21.20;99.90;;;;;;5094621;28;20024;-57
2022/06/30 04:53:01;;;;;;;25.42;15.02;;;21.30;99.90;;;;;;5094616;28;20073;-57
2022/06/30 04:55:27;;;;;;;29.35;15.70;;;21.40;99.90;;;;;;5094469;28;20392;-57
2022/06/30 04:57:52;;;;;;;31.13;15.25;;;21.40;99.90;;;;;;5094374;28;20103;-58
2022/06/30 05:00:18;;;;;;;24.98;14.32;;;21.50;99.90;;;;;;5094409;28;20492;-58
2022/06/30 05:02:44;;;;;;;22.25;13.23;;;21.70;99.90;;;;;;5097421;28;20032;-57
2022/06/30 05:05:10;;;;;;;20.60;12.80;;;21.80;99.90;;;;;;5098481;28;20031;-57
2022/06/30 05:07:36;;;;;;;23.85;13.77;;;21.90;99.90;;;;;;5098700;28;20112;-57
2022/06/30 05:10:03;;;;;;;25.90;14.10;;;22.00;99.90;;;;;;5097750;28;20031;-57
2022/06/30 05:12:29;;;;;;;21.23;12.98;;;22.10;99.90;;;;;;5098019;28;20508;-57
2022/06/30 05:14:55;;;;;;;17.85;12.07;;;22.20;99.90;;;;;;5098066;28;20129;-57
2022/06/30 05:17:21;;;;;;;24.80;13.95;;;22.30;99.90;;;;;;5098002;28;20390;-57
2022/06/30 05:19:47;;;;;;;19.35;13.23;;;22.40;99.90;;;;;;5097946;28;20028;-57
2022/06/30 05:22:13;;;;;;;21.27;13.50;;;22.50;99.90;;;;;;5094311;28;20381;-57
2022/06/30 05:27:25;;;;;;;20.65;13.18;;;22.70;99.90;;;;;;5098743;28;20055;-58
2022/06/30 05:29:51;;;;;;;23.58;13.52;;;22.80;99.90;;;;;;5097225;28;20039;-57
2022/06/30 05:32:17;;;;;;;19.85;13.05;;;22.90;99.90;;;;;;5098578;28;20150;-57
2022/06/30 05:34:42;;;;;;;17.30;13.18;;;22.90;99.90;;;;;;5097038;28;20064;-57
2022/06/30 05:37:08;;;;;;;20.48;13.07;;;23.00;99.90;;;;;;5098433;28;20488;-57
2022/06/30 05:39:35;;;;;;;22.65;13.63;;;23.00;99.90;;;;;;5097790;28;20392;-57
2022/06/30 05:42:02;;;;;;;21.50;14.13;;;23.10;99.90;;;;;;5085428;28;20029;-57
2022/06/30 05:44:28;;;;;;;25.20;14.68;;;23.10;99.90;;;;;;5077002;28;20025;-57
2022/06/30 05:46:55;;;;;;;44.72;16.25;;;23.20;99.90;;;;;;5084605;28;20020;-57
2022/06/30 05:49:25;;;;;;;27.65;14.63;;;23.30;99.90;;;;;;5096929;28;20081;-57
2022/06/30 05:51:51;;;;;;;19.45;14.35;;;23.50;99.90;;;;;;5097473;28;20020;-57
2022/06/30 05:54:19;;;;;;;21.90;14.95;;;23.50;99.90;;;;;;5112037;28;20019;-57
2022/06/30 05:56:45;;;;;;;18.02;12.95;;;23.60;99.90;;;;;;5094363;28;20031;-58
2022/06/30 05:59:11;;;;;;;27.05;15.77;;;23.70;99.90;;;;;;5096418;28;20039;-57
2022/06/30 06:01:37;;;;;;;25.00;14.05;;;23.80;99.90;;;;;;5098046;28;20036;-57
2022/06/30 06:04:04;;;;;;;26.25;14.25;;;23.90;99.90;;;;;;5097144;28;20020;-57
2022/06/30 06:06:30;;;;;;;19.30;12.70;;;24.10;99.90;;;;;;5096808;28;20028;-57
2022/06/30 06:08:56;;;;;;;25.67;14.02;;;24.10;99.90;;;;;;5096720;28;20453;-57
2022/06/30 06:11:22;;;;;;;19.90;13.68;;;24.20;99.90;;;;;;5096406;28;20059;-57
2022/06/30 06:13:48;;;;;;;30.85;15.02;;;24.30;99.90;;;;;;5097507;28;20048;-57
2022/06/30 06:16:14;;;;;;;24.27;12.73;;;24.50;99.90;;;;;;5097749;28;20036;-57
2022/06/30 06:18:40;;;;;;;28.90;13.35;;;24.60;99.90;;;;;;5097712;28;20063;-57
2022/06/30 06:21:06;;;;;;;23.10;12.98;;;24.80;99.90;;;;;;5079425;28;20035;-57
2022/06/30 06:23:32;;;;;;;18.63;12.55;;;25.00;99.90;;;;;;5097525;28;20043;-57
2022/06/30 06:25:58;;;;;;;25.77;13.25;;;25.00;99.90;;;;;;5096725;28;20028;-57
2022/06/30 06:31:08;;;;;;;29.55;12.57;;;25.20;99.90;;;;;;5096980;28;20032;-58
2022/06/30 06:33:34;;;;;;;27.38;11.65;;;25.30;99.90;;;;;;5097444;28;20020;-58
2022/06/30 06:36:02;;;;;;;20.50;11.90;;;25.50;99.90;;;;;;5097325;28;20043;-58
2022/06/30 06:38:28;;;;;;;20.65;11.90;;;25.70;99.90;;;;;;5097350;28;20039;-58
2022/06/30 06:40:54;;;;;;;28.80;11.07;;;25.90;99.90;;;;;;5097127;28;20028;-57
2022/06/30 06:43:20;;;;;;;19.58;10.50;;;26.00;99.90;;;;;;5097031;28;20457;-57
2022/06/30 06:45:46;;;;;;;27.90;10.50;;;26.10;99.90;;;;;;5095789;28;20040;-57
2022/06/30 06:48:12;;;;;;;41.15;12.18;;;26.20;99.90;;;;;;5111494;28;20027;-58
2022/06/30 06:50:38;;;;;;;40.53;11.60;;;26.40;99.90;;;;;;5095509;28;20024;-58
2022/06/30 06:53:04;;;;;;;40.20;11.45;;;26.50;99.90;;;;;;5096599;28;20374;-57
2022/06/30 06:55:30;;;;;;;43.17;11.73;;;26.70;99.90;;;;;;5097198;28;20028;-58
2022/06/30 06:57:57;;;;;;;28.92;10.80;;;26.80;99.90;;;;;;5095627;28;20038;-58
2022/06/30 07:00:23;;;;;;;37.80;12.05;;;26.90;99.90;;;;;;5077767;28;20122;-58
2022/06/30 07:02:49;;;;;;;34.22;12.07;;;27.20;99.90;;;;;;5096883;28;20038;-58
2022/06/30 07:05:15;;;;;;;27.70;10.05;;;27.40;99.90;;;;;;5095477;28;20051;-58
2022/06/30 07:07:41;;;;;;;28.13;10.98;;;27.60;97.00;;;;;;5096643;28;20024;-58
2022/06/30 07:10:08;;;;;;;29.92;10.57;;;27.90;96.30;;;;;;5096786;28;20059;-58
2022/06/30 07:12:36;;;;;;;20.90;9.75;;;28.20;95.70;;;;;;5096519;28;20482;-58
2022/06/30 07:15:03;;;;;;;23.58;11.10;;;28.50;97.40;;;;;;5096747;28;20028;-58
2022/06/30 07:17:36;;;;;;;25.20;9.43;;;28.50;90.80;;;;;;5096772;28;20039;-58
2022/06/30 07:20:03;;;;;;;24.33;9.80;;;28.80;89.10;;;;;;5095105;28;20056;-58
2022/06/30 07:22:29;;;;;;;23.48;9.80;;;29.00;86.60;;;;;;5096189;28;20367;-58
2022/06/30 07:24:56;;;;;;;20.25;8.65;;;29.30;85.50;;;;;;5094253;28;20039;-58
2022/06/30 07:27:22;;;;;;;23.95;9.15;;;29.70;88.10;;;;;;5095026;28;20047;-58
2022/06/30 07:29:48;;;;;;;20.80;8.88;;;29.90;82.00;;;;;;5096379;28;20381;-58
2022/06/30 07:32:14;;;;;;;21.05;8.38;;;30.00;75.80;;;;;;5095035;28;20052;-58
2022/06/30 07:34:39;;;;;;;21.02;8.77;;;30.10;72.90;;;;;;5095008;28;20066;-58
2022/06/30 07:37:05;;;;;;;23.50;9.15;;;30.40;72.50;;;;;;5096134;28;20038;-58
2022/06/30 07:39:31;;;;;;;22.13;8.95;;;30.30;69.80;;;;;;5096266;28;20032;-58
2022/06/30 07:41:57;;;;;;;23.60;9.20;;;30.50;74.30;;;;;;5096022;28;20036;-58
2022/06/30 07:44:23;;;;;;;23.52;8.07;;;30.70;70.70;;;;;;5094872;28;20032;-58
2022/06/30 07:46:49;;;;;;;27.83;8.98;;;31.10;67.60;;;;;;5095050;28;20158;-58
2022/06/30 07:49:15;;;;;;;18.48;7.90;;;31.30;67.30;;;;;;5095245;28;20233;-58
2022/06/30 07:51:41;;;;;;;31.30;9.75;;;31.40;72.00;;;;;;5094756;28;20038;-58
2022/06/30 07:54:07;;;;;;;18.63;8.50;;;31.80;69.10;;;;;;5094977;28;20035;-58
2022/06/30 07:56:33;;;;;;;23.45;9.10;;;31.90;61.50;;;;;;5095185;28;20032;-58
2022/06/30 07:58:59;;;;;;;34.75;10.57;;;31.80;61.50;;;;;;5094726;28;20031;-58
2022/06/30 08:01:25;;;;;;;29.50;8.70;;;31.20;61.30;;;;;;5093604;28;20028;-58
2022/06/30 08:03:51;;;;;;;18.88;7.78;;;31.90;62.50;;;;;;5094710;28;20036;-58
2022/06/30 08:06:17;;;;;;;19.48;6.97;;;32.20;60.60;;;;;;5094746;28;20020;-58
2022/06/30 08:08:44;;;;;;;23.10;8.48;;;32.40;60.20;;;;;;5094658;28;20034;-58
2022/06/30 08:11:10;;;;;;;39.92;11.07;;;32.80;58.60;;;;;;5093713;28;20028;-58
2022/06/30 08:13:37;;;;;;;22.35;9.13;;;33.20;57.80;;;;;;5094574;28;20519;-58
2022/06/30 08:16:04;;;;;;;19.25;8.07;;;33.50;58.80;;;;;;5092982;28;20066;-58
2022/06/30 08:18:30;;;;;;;22.10;7.07;;;33.60;55.50;;;;;;5089691;28;20037;-58
2022/06/30 08:20:56;;;;;;;22.63;7.38;;;33.80;56.10;;;;;;5093482;28;20238;-59
2022/06/30 08:23:23;;;;;;;17.65;7.28;;;34.00;55.40;;;;;;5094597;28;20130;-58
2022/06/30 08:25:49;;;;;;;25.25;7.53;;;34.30;54.80;;;;;;5094557;28;20099;-58
2022/06/30 08:28:15;;;;;;;24.15;7.07;;;34.60;54.70;;;;;;5094933;28;20448;-58
2022/06/30 08:30:40;;;;;;;26.15;6.78;;;34.70;52.60;;;;;;5094886;28;20020;-58
2022/06/30 08:33:06;;;;;;;22.92;7.32;;;34.90;52.40;;;;;;5094905;28;20024;-58
2022/06/30 08:35:32;;;;;;;25.52;5.88;;;34.60;46.80;;;;;;5093779;28;20504;-58
2022/06/30 08:37:58;;;;;;;25.73;6.68;;;34.60;47.50;;;;;;5094325;28;20046;-58
2022/06/30 08:43:09;;;;;;;27.70;8.32;;;35.10;49.00;;;;;;5094036;28;20334;-58
2022/06/30 08:45:35;;;;;;;22.02;6.22;;;35.00;46.00;;;;;;5094242;28;20143;-58
2022/06/30 08:48:01;;;;;;;16.92;5.03;;;35.30;46.60;;;;;;5094132;28;20067;-58
2022/06/30 08:50:27;;;;;;;21.13;5.13;;;35.10;43.60;;;;;;5094538;28;20031;-58
2022/06/30 08:52:56;;;;;;;18.38;5.18;;;35.30;42.70;;;;;;5095183;28;20028;-59
2022/06/30 08:55:32;;;;;;;18.17;4.47;;;35.40;40.90;;;;;;5094481;28;20028;-58
2022/06/30 08:58:03;;;;;;;17.33;6.53;;;35.50;41.40;;;;;;5074186;28;20017;-58
2022/06/30 09:00:29;;;;;;;26.27;7.00;;;35.60;41.30;;;;;;5073351;28;20033;-58
2022/06/30 09:02:56;;;;;;;15.45;5.80;;;35.60;41.30;;;;;;5079001;28;20082;-58
2022/06/30 09:05:22;;;;;;;16.00;5.35;;;35.60;42.00;;;;;;5093284;28;20174;-58
2022/06/30 09:07:48;;;;;;;35.20;14.25;;;34.70;42.50;;;;;;5094829;28;20107;-59
2022/06/30 09:10:14;;;;;;;16.92;6.03;;;34.60;40.80;;;;;;5093915;28;20044;-58
2022/06/30 09:12:54;;;;;;;33.22;14.77;;;33.90;41.50;;;;;;5094804;28;20051;-58
2022/06/30 09:15:20;;;;;;;22.35;7.88;;;34.50;42.80;;;;;;5095041;28;20024;-58
2022/06/30 09:17:47;;;;;;;28.25;9.07;;;34.40;43.30;;;;;;5094475;28;20035;-58
2022/06/30 09:20:14;;;;;;;15.43;6.20;;;34.80;46.70;;;;;;5094633;28;20066;-58
2022/06/30 09:22:41;;;;;;;38.63;13.68;;;34.70;43.60;;;;;;5094384;28;20050;-58
2022/06/30 09:25:10;;;;;;;45.22;12.45;;;34.80;42.60;;;;;;5094300;28;20029;-58
2022/06/30 09:27:41;;;;;;;29.33;9.98;;;35.60;44.40;;;;;;5094090;28;20401;-58
2022/06/30 09:30:10;;;;;;;27.00;9.80;;;34.80;43.60;;;;;;5094545;28;20424;-59
2022/06/30 09:32:56;;;;;;;15.85;6.15;;;34.90;43.60;;;;;;5093928;28;20047;-58
2022/06/30 09:35:31;;;;;;;22.13;5.78;;;34.60;41.50;;;;;;5093753;28;20423;-58
2022/06/30 09:38:06;;;;;;;15.82;6.05;;;35.10;44.30;;;;;;5094302;28;20404;-58
2022/06/30 09:41:01;;;;;;;17.40;6.00;;;35.60;45.10;;;;;;5093879;28;20412;-58
2022/06/30 09:43:32;;;;;;;18.92;6.50;;;34.80;37.90;;;;;;5093974;28;20050;-59
2022/06/30 09:45:58;;;;;;;16.10;5.13;;;35.40;42.70;;;;;;5093746;28;20035;-58
2022/06/30 09:48:28;;;;;;;16.73;5.00;;;35.80;41.40;;;;;;5096103;28;20020;-58
2022/06/30 09:51:01;;;;;;;16.40;4.55;;;36.40;43.50;;;;;;5097820;28;20028;-59
2022/06/30 09:53:28;;;;;;;20.80;5.95;;;36.90;39.20;;;;;;5097639;28;20462;-58
2022/06/30 09:55:54;;;;;;;17.52;4.40;;;36.70;36.00;;;;;;5097197;28;20020;-59
2022/06/30 09:58:26;;;;;;;17.65;5.15;;;36.80;35.80;;;;;;5096917;28;20055;-58
2022/06/30 10:00:52;;;;;;;10.25;4.35;;;37.20;36.90;;;;;;5096819;28;20035;-59
2022/06/30 10:03:19;;;;;;;17.63;5.28;;;37.40;37.50;;;;;;5096697;28;20023;-58
2022/06/30 10:05:49;;;;;;;12.95;4.78;;;37.30;36.40;;;;;;5096886;28;20024;-58
2022/06/30 10:08:18;;;;;;;14.95;4.40;;;37.60;36.50;;;;;;5096894;28;20024;-59
2022/06/30 10:10:48;;;;;;;20.42;5.38;;;37.90;36.70;;;;;;5096980;28;20028;-58
2022/06/30 10:13:16;;;;;;;22.67;5.18;;;38.40;38.20;;;;;;5096722;28;20071;-58
2022/06/30 10:15:52;;;;;;;16.08;4.82;;;38.40;35.50;;;;;;5097168;28;20028;-59
2022/06/30 10:18:19;;;;;;;15.10;5.80;;;37.90;35.80;;;;;;5097157;28;20028;-59
2022/06/30 10:20:46;;;;;;;19.13;6.00;;;38.10;35.90;;;;;;5096395;28;20078;-59
2022/06/30 10:23:13;;;;;;;17.50;5.40;;;37.50;34.00;;;;;;5096378;28;20167;-58
2022/06/30 10:25:41;;;;;;;15.35;4.63;;;37.80;35.20;;;;;;5095353;28;20020;-58
2022/06/30 10:28:07;;;;;;;22.50;5.65;;;38.10;35.60;;;;;;5096246;28;20036;-59
2022/06/30 10:31:14;;;;;;;20.58;5.45;;;38.40;35.50;;;;;;5096020;28;20024;-58
2022/06/30 10:33:52;;;;;;;16.75;4.72;;;38.60;35.80;;;;;;5093400;28;20091;-59
2022/06/30 10:36:29;;;;;;;23.17;6.97;;;38.90;33.70;;;;;;5095573;28;20043;-59
2022/06/30 10:39:07;;;;;;;16.25;4.88;;;37.80;33.30;;;;;;5096736;28;20118;-58
2022/06/30 10:41:44;;;;;;;19.55;4.97;;;38.50;34.30;;;;;;5097065;28;20020;-58
2022/06/30 10:44:12;;;;;;;15.73;4.75;;;38.60;33.20;;;;;;5097155;28;20058;-59
2022/06/30 10:46:46;;;;;;;13.23;4.70;;;37.80;32.80;;;;;;5097148;28;20028;-58
2022/06/30 10:49:13;;;;;;;14.07;5.07;;;37.90;34.10;;;;;;5096724;28;20119;-58
2022/06/30 10:51:40;;;;;;;23.60;5.78;;;38.20;33.90;;;;;;5094868;28;20085;-59
2022/06/30 10:54:06;;;;;;;15.70;4.15;;;38.50;33.10;;;;;;5095664;28;20059;-58
2022/06/30 10:56:53;;;;;;;18.02;4.75;;;38.90;32.80;;;;;;5096819;28;20258;-59
2022/06/30 10:59:32;;;;;;;12.82;4.43;;;39.00;33.10;;;;;;5092976;28;20530;-59
2022/06/30 11:02:10;;;;;;;12.38;4.28;;;39.10;32.30;;;;;;5094979;28;20490;-58
2022/06/30 11:04:47;;;;;;;12.32;4.47;;;39.40;32.40;;;;;;5096579;28;20038;-59
2022/06/30 11:07:24;;;;;;;24.50;5.90;;;39.40;31.10;;;;;;5096479;28;20028;-59
2022/06/30 11:09:55;;;;;;;13.07;4.72;;;39.40;32.40;;;;;;5094211;28;20016;-58
2022/06/30 11:12:31;;;;;;;18.02;5.95;;;39.70;33.90;;;;;;5076616;28;20041;-59
2022/06/30 11:14:59;;;;;;;17.85;5.43;;;39.80;32.60;;;;;;5095060;28;20047;-59
2022/06/30 11:17:28;;;;;;;18.90;5.43;;;39.10;30.80;;;;;;5095256;28;20032;-59
2022/06/30 11:20:04;;;;;;;20.58;5.35;;;38.80;35.40;;;;;;5092395;28;20034;-59
2022/06/30 11:22:31;;;;;;;13.65;5.25;;;39.30;33.70;;;;;;5096385;28;20032;-59
2022/06/30 11:25:04;;;;;;;25.38;6.78;;;38.90;30.60;;;;;;5094912;28;20032;-59
2022/06/30 11:27:36;;;;;;;15.85;4.97;;;38.90;32.50;;;;;;5096230;28;20496;-59
2022/06/30 11:30:08;;;;;;;18.33;5.10;;;39.10;31.40;;;;;;5096477;28;20381;-58
2022/06/30 11:32:35;;;;;;;13.20;5.40;;;39.20;32.30;;;;;;5094384;28;20024;-59
2022/06/30 11:35:01;;;;;;;19.08;5.75;;;39.40;31.50;;;;;;5094666;28;20407;-58
2022/06/30 11:37:30;;;;;;;17.98;6.25;;;39.40;30.50;;;;;;5093580;28;20398;-59
2022/06/30 11:39:57;;;;;;;16.80;6.25;;;39.50;30.70;;;;;;5094644;28;20032;-59
2022/06/30 11:42:25;;;;;;;14.68;5.10;;;39.60;31.30;;;;;;5093588;28;20059;-58
2022/06/30 11:44:51;;;;;;;13.32;5.53;;;39.10;31.00;;;;;;5093309;28;20024;-58
2022/06/30 11:47:18;;;;;;;19.17;6.07;;;39.30;31.10;;;;;;5095708;28;20051;-58
2022/06/30 11:49:51;;;;;;;15.90;5.60;;;39.50;30.70;;;;;;5096222;28;20050;-59
2022/06/30 11:52:29;;;;;;;13.00;5.10;;;39.40;30.00;;;;;;5096285;28;20024;-59
2022/06/30 11:55:09;;;;;;;16.88;6.25;;;39.80;30.60;;;;;;5094133;28;20366;-58
2022/06/30 11:57:42;;;;;;;14.88;5.85;;;39.30;30.00;;;;;;5094878;28;20082;-58
2022/06/30 12:00:14;;;;;;;17.98;5.40;;;38.70;30.10;;;;;;5094294;28;20024;-58
2022/06/30 12:02:42;;;;;;;13.43;4.70;;;38.80;33.80;;;;;;5094042;28;20032;-59
2022/06/30 12:05:09;;;;;;;20.33;5.70;;;39.10;31.50;;;;;;5094353;28;20466;-58
2022/06/30 12:07:36;;;;;;;14.40;4.72;;;39.20;33.30;;;;;;5094211;28;20032;-58
2022/06/30 12:10:05;;;;;;;15.95;5.47;;;39.50;30.00;;;;;;5093271;28;20024;-59
2022/06/30 12:12:32;;;;;;;24.60;6.45;;;39.30;29.60;;;;;;5094700;28;20043;-58
2022/06/30 12:15:00;;;;;;;16.52;5.43;;;39.30;29.70;;;;;;5095380;28;20024;-59
2022/06/30 12:17:38;;;;;;;17.67;5.20;;;39.10;29.80;;;;;;5095445;28;20111;-58
2022/06/30 12:20:06;;;;;;;18.38;5.93;;;39.00;30.00;;;;;;5094949;28;20103;-59
2022/06/30 12:22:36;;;;;;;13.13;4.55;;;38.90;31.50;;;;;;5095114;28;20038;-58
2022/06/30 12:25:12;;;;;;;23.42;7.60;;;39.30;29.70;;;;;;5075214;28;20123;-59
2022/06/30 12:27:51;;;;;;;22.08;6.75;;;39.40;29.90;;;;;;5090080;28;20130;-59
2022/06/30 12:30:24;;;;;;;22.38;7.63;;;39.00;29.60;;;;;;5074918;28;20029;-58
2022/06/30 12:33:04;;;;;;;14.55;4.60;;;38.40;30.50;;;;;;5088458;28;20016;-58
2022/06/30 12:35:35;;;;;;;21.50;7.35;;;38.90;30.00;;;;;;5093167;28;20123;-58
2022/06/30 12:38:22;;;;;;;17.88;5.03;;;38.70;32.80;;;;;;5094573;28;20071;-58
2022/06/30 12:40:49;;;;;;;14.93;4.85;;;39.20;32.00;;;;;;5095314;28;20032;-58
2022/06/30 12:43:19;;;;;;;19.75;5.80;;;38.60;30.70;;;;;;5095384;28;20028;-58
2022/06/30 12:45:55;;;;;;;22.35;6.55;;;38.90;31.10;;;;;;5093462;28;20032;-58
2022/06/30 12:48:54;;;;;;;14.00;5.43;;;38.80;33.10;;;;;;5094942;28;20358;-58
2022/06/30 12:51:32;;;;;;;24.92;7.68;;;39.20;34.30;;;;;;5086651;28;20040;-58